Belton, TX

4:20 AM CST on December 04, 2016 (GMT -0600)
North Belton | | Change Station

Elev 587 ft 31.07 °N, 97.45 °W | Updated 6 seconds ago

Overcast
Overcast
49.5 °F
Feels Like 49 °F
N
3.6
Wind Variable Wind from North
Gusts 4.9 mph

Today
High -- | Low -- °F
--% Chance of Precip.
Yesterday
High -- | Low -- °F
Precip. -- in
Pressure 30.01 in
Visibility 10.0 miles
Clouds Overcast 300 ft
Windchill 49 °F
Dew Point 49 °F
Humidity 99%
Rainfall 0.00 in
Snow Depth Not available.
7:13 AM 5:27 PM
Waxing Crescent, 21% visible
METAR KTPL 040951Z AUTO 35008KT 10SM OVC003 09/08 A2996 RMK AO2 CIG 003V007 SLP163 T00890083
Pressure 30.01 in
Visibility 10.0 miles
Clouds Overcast 300 ft
Windchill 49 °F
Dew Point 49 °F
Humidity 99%
Rainfall 0.00 in
Snow Depth Not available.
7:13 AM 5:27 PM
Waxing Crescent, 21% visible
METAR KTPL 040951Z AUTO 35008KT 10SM OVC003 09/08 A2996 RMK AO2 CIG 003V007 SLP163 T00890083

10-Day Weather Forecast

Almanac

Astronomy

Dec. 04, 2016 Rise Set
Actual Time
Civil Twilight
Nautical Twilight
Astronomical Twilight
Moon
Length of Visible Light
Length of Day
Tomorrow will be .
, % of the Moon is Illuminated

Today's Extremes

State Highs State Lows

Community

WunderPhotos

Upload Photos

1,955,591 photos uploaded!

WunderBlog® & News

Nearby

Air Quality

  Air Quality AQ Index Pollutant
Not available.

Snow Depth

Station Depth Elevation

Earthquake Activity

City Distance Mag. Time & Date
Minimum magnitude displayed is 2.5.

Coastal Water Temperatures

Place Temperature

Stations

Nearby Weather Stations

Station Location Temp. Windchill Dew Point Humidity Wind Precip. Elev Updated Type
                   

Watches & Warnings

There are currently no watches in effect.